sensor_id;sensor_type;location;lat;lon;timestamp;pressure;altitude;pressure_sealevel;temperature;humidity
1371;BME280;14306;49.942;11.570;2022-11-30T00:00:11;97908.97;;;6.17;87.86
1371;BME280;14306;49.942;11.570;2022-11-30T00:02:40;97920.81;;;6.11;87.82
1371;BME280;14306;49.942;11.570;2022-11-30T00:05:09;97909.81;;;6.18;87.35
1371;BME280;14306;49.942;11.570;2022-11-30T00:07:37;97903.13;;;6.30;87.57
1371;BME280;14306;49.942;11.570;2022-11-30T00:10:07;97921.44;;;6.33;87.02
1371;BME280;14306;49.942;11.570;2022-11-30T00:12:37;97909.03;;;6.32;86.90
1371;BME280;14306;49.942;11.570;2022-11-30T00:15:08;97907.13;;;6.18;87.78
1371;BME280;14306;49.942;11.570;2022-11-30T00:17:39;97896.41;;;6.33;87.72
1371;BME280;14306;49.942;11.570;2022-11-30T00:20:08;97895.06;;;6.30;86.90
1371;BME280;14306;49.942;11.570;2022-11-30T00:22:37;97923.56;;;6.26;87.13
1371;BME280;14306;49.942;11.570;2022-11-30T00:25:06;97851.72;;;6.17;86.78
1371;BME280;14306;49.942;11.570;2022-11-30T00:27:34;97897.00;;;6.65;86.03
1371;BME280;14306;49.942;11.570;2022-11-30T00:30:05;97881.63;;;6.40;86.42
1371;BME280;14306;49.942;11.570;2022-11-30T00:32:34;97878.72;;;6.52;85.68
1371;BME280;14306;49.942;11.570;2022-11-30T00:35:02;97899.44;;;6.66;85.88
1371;BME280;14306;49.942;11.570;2022-11-30T00:37:33;97894.56;;;6.43;86.21
1371;BME280;14306;49.942;11.570;2022-11-30T00:40:01;97894.88;;;6.67;86.12
1371;BME280;14306;49.942;11.570;2022-11-30T00:42:29;97903.22;;;6.60;85.96
1371;BME280;14306;49.942;11.570;2022-11-30T00:45:00;97877.31;;;6.44;86.50
1371;BME280;14306;49.942;11.570;2022-11-30T00:47:30;97872.81;;;6.55;86.13
1371;BME280;14306;49.942;11.570;2022-11-30T00:49:58;97902.91;;;6.62;85.77
1371;BME280;14306;49.942;11.570;2022-11-30T00:52:27;97904.56;;;6.63;86.09
1371;BME280;14306;49.942;11.570;2022-11-30T00:54:55;97882.22;;;6.57;86.27
1371;BME280;14306;49.942;11.570;2022-11-30T00:57:29;97861.16;;;6.29;86.83
1371;BME280;14306;49.942;11.570;2022-11-30T00:59:57;97897.28;;;6.53;86.32
1371;BME280;14306;49.942;11.570;2022-11-30T01:02:25;97896.47;;;6.53;86.29
1371;BME280;14306;49.942;11.570;2022-11-30T01:04:55;97881.94;;;6.54;85.40
1371;BME280;14306;49.942;11.570;2022-11-30T01:07:23;97881.63;;;6.30;86.42
1371;BME280;14306;49.942;11.570;2022-11-30T01:09:52;97897.75;;;6.40;85.64
1371;BME280;14306;49.942;11.570;2022-11-30T01:12:20;97907.22;;;6.53;86.34
1371;BME280;14306;49.942;11.570;2022-11-30T01:14:48;97896.16;;;6.44;85.92
1371;BME280;14306;49.942;11.570;2022-11-30T01:17:16;97899.97;;;6.53;85.85
1371;BME280;14306;49.942;11.570;2022-11-30T01:19:45;97902.88;;;6.37;85.48
1371;BME280;14306;49.942;11.570;2022-11-30T01:22:15;97901.22;;;6.26;85.79
1371;BME280;14306;49.942;11.570;2022-11-30T01:24:43;97916.03;;;6.28;85.82
1371;BME280;14306;49.942;11.570;2022-11-30T01:27:12;97906.59;;;6.31;85.76
1371;BME280;14306;49.942;11.570;2022-11-30T01:29:40;97903.91;;;6.26;85.84
1371;BME280;14306;49.942;11.570;2022-11-30T01:32:08;97905.31;;;6.43;85.05
1371;BME280;14306;49.942;11.570;2022-11-30T01:34:36;97905.06;;;6.45;85.23
1371;BME280;14306;49.942;11.570;2022-11-30T01:37:05;97903.13;;;6.30;85.75
1371;BME280;14306;49.942;11.570;2022-11-30T01:39:35;97921.19;;;6.40;85.27
1371;BME280;14306;49.942;11.570;2022-11-30T01:42:03;97898.00;;;6.29;85.46
1371;BME280;14306;49.942;11.570;2022-11-30T01:44:50;97914.94;;;6.29;85.24
1371;BME280;14306;49.942;11.570;2022-11-30T01:47:23;97906.38;;;6.37;84.84
1371;BME280;14306;49.942;11.570;2022-11-30T01:49:56;97915.53;;;6.41;85.34
1371;BME280;14306;49.942;11.570;2022-11-30T01:52:32;97897.25;;;6.48;85.39
1371;BME280;14306;49.942;11.570;2022-11-30T01:55:07;97900.19;;;6.42;84.82
1371;BME280;14306;49.942;11.570;2022-11-30T01:57:43;97894.25;;;6.30;85.19
1371;BME280;14306;49.942;11.570;2022-11-30T02:00:14;97907.22;;;6.48;85.05
1371;BME280;14306;49.942;11.570;2022-11-30T02:02:49;97879.97;;;6.29;85.63
1371;BME280;14306;49.942;11.570;2022-11-30T02:05:22;97900.22;;;6.52;85.45
1371;BME280;14306;49.942;11.570;2022-11-30T02:07:57;97898.09;;;6.59;85.42
1371;BME280;14306;49.942;11.570;2022-11-30T02:10:29;97903.47;;;6.59;85.41
1371;BME280;14306;49.942;11.570;2022-11-30T02:13:13;97897.25;;;6.48;85.28
1371;BME280;14306;49.942;11.570;2022-11-30T02:15:48;97906.72;;;6.76;84.10
1371;BME280;14306;49.942;11.570;2022-11-30T02:18:21;97916.66;;;6.60;84.12
1371;BME280;14306;49.942;11.570;2022-11-30T02:21:00;97907.28;;;6.83;84.78
1371;BME280;14306;49.942;11.570;2022-11-30T02:26:48;97922.06;;;6.60;83.47
1371;BME280;14306;49.942;11.570;2022-11-30T02:29:22;97911.72;;;6.32;84.91
1371;BME280;14306;49.942;11.570;2022-11-30T02:31:56;97915.31;;;6.63;85.33
1371;BME280;14306;49.942;11.570;2022-11-30T02:34:27;97920.97;;;6.66;85.08
1371;BME280;14306;49.942;11.570;2022-11-30T02:36:58;97917.47;;;6.61;85.04
1371;BME280;14306;49.942;11.570;2022-11-30T02:39:28;97913.41;;;6.53;84.52
1371;BME280;14306;49.942;11.570;2022-11-30T02:41:56;97912.03;;;6.46;85.08
1371;BME280;14306;49.942;11.570;2022-11-30T02:44:27;97927.47;;;6.75;84.17
1371;BME280;14306;49.942;11.570;2022-11-30T02:47:11;97928.28;;;6.86;84.21
1371;BME280;14306;49.942;11.570;2022-11-30T02:49:47;97911.81;;;6.57;84.56
1371;BME280;14306;49.942;11.570;2022-11-30T02:52:17;97876.25;;;6.40;84.76
1371;BME280;14306;49.942;11.570;2022-11-30T02:54:48;97885.72;;;6.63;83.47
1371;BME280;14306;49.942;11.570;2022-11-30T02:57:20;97924.72;;;6.55;83.77
1371;BME280;14306;49.942;11.570;2022-11-30T02:59:50;97902.88;;;6.37;84.59
1371;BME280;14306;49.942;11.570;2022-11-30T03:02:18;97902.56;;;6.28;84.85
1371;BME280;14306;49.942;11.570;2022-11-30T03:04:47;97933.88;;;6.59;84.46
1371;BME280;14306;49.942;11.570;2022-11-30T03:07:16;97919.88;;;6.62;84.07
1371;BME280;14306;49.942;11.570;2022-11-30T03:09:45;97911.50;;;6.54;83.92
1371;BME280;14306;49.942;11.570;2022-11-30T03:12:13;97935.84;;;6.89;83.92
1371;BME280;14306;49.942;11.570;2022-11-30T03:14:42;97943.31;;;6.67;83.79
1371;BME280;14306;49.942;11.570;2022-11-30T03:17:12;97957.03;;;6.65;83.97
1371;BME280;14306;49.942;11.570;2022-11-30T03:19:41;97916.38;;;6.52;83.84
1371;BME280;14306;49.942;11.570;2022-11-30T03:22:09;97953.03;;;6.88;83.69
1371;BME280;14306;49.942;11.570;2022-11-30T03:24:38;97954.94;;;6.92;83.93
1371;BME280;14306;49.942;11.570;2022-11-30T03:27:07;97930.66;;;6.52;83.24
1371;BME280;14306;49.942;11.570;2022-11-30T03:29:35;97956.47;;;6.53;83.85
1371;BME280;14306;49.942;11.570;2022-11-30T03:32:05;97946.75;;;6.42;84.93
1371;BME280;14306;49.942;11.570;2022-11-30T03:34:35;97934.50;;;6.05;84.97
1371;BME280;14306;49.942;11.570;2022-11-30T03:37:04;97929.66;;;6.12;85.44
1371;BME280;14306;49.942;11.570;2022-11-30T03:39:34;97954.25;;;6.40;84.06
1371;BME280;14306;49.942;11.570;2022-11-30T03:42:03;97952.88;;;6.33;84.31
1371;BME280;14306;49.942;11.570;2022-11-30T03:44:32;97947.69;;;6.11;85.70
1371;BME280;14306;49.942;11.570;2022-11-30T03:47:00;97926.63;;;5.93;85.88
1371;BME280;14306;49.942;11.570;2022-11-30T03:49:29;97921.31;;;6.03;85.89
1371;BME280;14306;49.942;11.570;2022-11-30T03:51:58;97935.22;;;5.90;86.41
1371;BME280;14306;49.942;11.570;2022-11-30T03:54:27;97947.06;;;5.94;86.47
1371;BME280;14306;49.942;11.570;2022-11-30T03:56:55;97956.03;;;6.10;87.06
1371;BME280;14306;49.942;11.570;2022-11-30T03:59:23;97949.06;;;6.19;86.04
1371;BME280;14306;49.942;11.570;2022-11-30T04:01:52;97951.94;;;6.02;86.70
1371;BME280;14306;49.942;11.570;2022-11-30T04:04:20;97936.88;;;5.96;86.40
1371;BME280;14306;49.942;11.570;2022-11-30T04:06:48;97938.72;;;5.91;87.55
1371;BME280;14306;49.942;11.570;2022-11-30T04:09:18;97949.88;;;6.19;86.83
1371;BME280;14306;49.942;11.570;2022-11-30T04:11:47;97940.72;;;6.20;87.19
1371;BME280;14306;49.942;11.570;2022-11-30T04:14:15;97954.94;;;6.11;87.06
1371;BME280;14306;49.942;11.570;2022-11-30T04:16:44;97926.13;;;6.06;87.19
1371;BME280;14306;49.942;11.570;2022-11-30T04:19:12;97939.56;;;5.96;88.23
1371;BME280;14306;49.942;11.570;2022-11-30T04:21:40;97954.19;;;6.20;87.67
1371;BME280;14306;49.942;11.570;2022-11-30T04:24:08;97958.72;;;6.10;87.76
1371;BME280;14306;49.942;11.570;2022-11-30T04:26:38;97943.41;;;6.15;87.04
1371;BME280;14306;49.942;11.570;2022-11-30T04:29:06;97937.47;;;6.08;87.02
1371;BME280;14306;49.942;11.570;2022-11-30T04:31:34;97926.56;;;5.83;88.38
1371;BME280;14306;49.942;11.570;2022-11-30T04:34:02;97929.88;;;5.95;88.04
1371;BME280;14306;49.942;11.570;2022-11-30T04:36:30;97947.53;;;5.86;88.09
1371;BME280;14306;49.942;11.570;2022-11-30T04:38:58;97934.16;;;5.91;88.19
1371;BME280;14306;49.942;11.570;2022-11-30T04:41:26;97930.66;;;5.96;87.76
1371;BME280;14306;49.942;11.570;2022-11-30T04:43:56;97944.94;;;5.96;87.69
1371;BME280;14306;49.942;11.570;2022-11-30T04:46:24;97940.19;;;6.18;87.65
1371;BME280;14306;49.942;11.570;2022-11-30T04:48:52;97950.69;;;6.20;88.18
1371;BME280;14306;49.942;11.570;2022-11-30T04:51:20;97916.28;;;6.22;87.45
1371;BME280;14306;49.942;11.570;2022-11-30T04:53:48;97949.69;;;6.36;86.88
1371;BME280;14306;49.942;11.570;2022-11-30T04:56:16;97946.94;;;6.31;86.34
1371;BME280;14306;49.942;11.570;2022-11-30T04:58:44;97915.50;;;6.26;86.54
1371;BME280;14306;49.942;11.570;2022-11-30T05:01:17;97915.13;;;6.08;86.23
1371;BME280;14306;49.942;11.570;2022-11-30T05:03:45;97913.84;;;6.20;86.44
1371;BME280;14306;49.942;11.570;2022-11-30T05:06:13;97920.22;;;6.04;86.59
1371;BME280;14306;49.942;11.570;2022-11-30T05:08:41;97973.97;;;6.61;86.15
1371;BME280;14306;49.942;11.570;2022-11-30T05:11:09;97969.56;;;6.35;87.37
1371;BME280;14306;49.942;11.570;2022-11-30T05:13:38;97952.06;;;6.27;86.98
1371;BME280;14306;49.942;11.570;2022-11-30T05:16:07;97974.25;;;6.03;87.07
1371;BME280;14306;49.942;11.570;2022-11-30T05:18:38;97939.75;;;5.85;88.48
1371;BME280;14306;49.942;11.570;2022-11-30T05:21:07;97967.75;;;5.94;88.14
1371;BME280;14306;49.942;11.570;2022-11-30T05:23:38;97910.38;;;5.78;87.78
1371;BME280;14306;49.942;11.570;2022-11-30T05:26:06;97967.31;;;6.12;87.69
1371;BME280;14306;49.942;11.570;2022-11-30T05:28:35;97938.97;;;5.89;87.47
1371;BME280;14306;49.942;11.570;2022-11-30T05:31:04;97984.84;;;5.78;88.86
1371;BME280;14306;49.942;11.570;2022-11-30T05:33:59;97976.09;;;5.92;88.06
1371;BME280;14306;49.942;11.570;2022-11-30T05:36:29;97943.03;;;5.55;88.18
1371;BME280;14306;49.942;11.570;2022-11-30T05:38:58;97973.00;;;6.20;87.01
1371;BME280;14306;49.942;11.570;2022-11-30T05:41:26;97974.06;;;6.14;87.33
1371;BME280;14306;49.942;11.570;2022-11-30T05:43:55;97966.75;;;6.05;88.17
1371;BME280;14306;49.942;11.570;2022-11-30T05:46:24;97941.66;;;5.89;87.91
1371;BME280;14306;49.942;11.570;2022-11-30T05:48:54;97966.78;;;6.10;87.19
1371;BME280;14306;49.942;11.570;2022-11-30T05:51:25;98003.59;;;6.09;87.50
1371;BME280;14306;49.942;11.570;2022-11-30T05:53:55;97953.25;;;6.00;87.08
1371;BME280;14306;49.942;11.570;2022-11-30T05:56:24;97974.84;;;6.15;86.82
1371;BME280;14306;49.942;11.570;2022-11-30T05:58:52;97967.09;;;6.18;86.58
1371;BME280;14306;49.942;11.570;2022-11-30T06:01:23;97968.19;;;6.22;86.47
1371;BME280;14306;49.942;11.570;2022-11-30T06:03:53;97950.06;;;6.08;86.27
1371;BME280;14306;49.942;11.570;2022-11-30T06:06:22;97968.19;;;6.27;86.39
1371;BME280;14306;49.942;11.570;2022-11-30T06:08:53;97979.44;;;6.14;86.13
1371;BME280;14306;49.942;11.570;2022-11-30T06:11:21;97976.50;;;6.21;87.06
1371;BME280;14306;49.942;11.570;2022-11-30T06:13:49;97953.06;;;5.70;87.08
1371;BME280;14306;49.942;11.570;2022-11-30T06:16:19;97945.56;;;5.72;87.99
1371;BME280;14306;49.942;11.570;2022-11-30T06:18:51;97975.25;;;5.92;86.77
1371;BME280;14306;49.942;11.570;2022-11-30T06:21:21;97958.66;;;5.63;87.07
1371;BME280;14306;49.942;11.570;2022-11-30T06:23:55;97965.59;;;5.91;86.71
1371;BME280;14306;49.942;11.570;2022-11-30T06:26:25;97976.38;;;5.59;87.59
1371;BME280;14306;49.942;11.570;2022-11-30T06:28:56;97983.69;;;5.69;87.96
1371;BME280;14306;49.942;11.570;2022-11-30T06:31:25;97971.91;;;5.75;87.58
1371;BME280;14306;49.942;11.570;2022-11-30T06:33:55;97966.97;;;5.62;87.11
1371;BME280;14306;49.942;11.570;2022-11-30T06:36:24;97977.34;;;5.48;87.94
1371;BME280;14306;49.942;11.570;2022-11-30T06:39:03;97963.28;;;5.31;88.01
1371;BME280;14306;49.942;11.570;2022-11-30T06:41:32;97965.13;;;5.31;88.29
1371;BME280;14306;49.942;11.570;2022-11-30T06:44:00;97975.28;;;5.24;89.12
1371;BME280;14306;49.942;11.570;2022-11-30T06:46:30;97985.66;;;5.47;88.35
1371;BME280;14306;49.942;11.570;2022-11-30T06:48:59;97981.94;;;5.48;88.84
1371;BME280;14306;49.942;11.570;2022-11-30T06:51:27;97965.50;;;5.44;88.54
1371;BME280;14306;49.942;11.570;2022-11-30T06:53:54;97986.84;;;5.61;87.91
1371;BME280;14306;49.942;11.570;2022-11-30T06:56:24;97971.13;;;5.79;87.09
1371;BME280;14306;49.942;11.570;2022-11-30T06:58:52;97976.31;;;5.86;87.57
1371;BME280;14306;49.942;11.570;2022-11-30T07:01:20;97975.25;;;5.92;86.86
1371;BME280;14306;49.942;11.570;2022-11-30T07:03:48;97998.13;;;5.94;87.89
1371;BME280;14306;49.942;11.570;2022-11-30T07:06:17;97993.16;;;5.76;87.30
1371;BME280;14306;49.942;11.570;2022-11-30T07:08:45;97998.06;;;5.84;87.45
1371;BME280;14306;49.942;11.570;2022-11-30T07:11:20;98010.19;;;5.92;87.40
1371;BME280;14306;49.942;11.570;2022-11-30T07:13:53;97987.25;;;5.79;87.60
1371;BME280;14306;49.942;11.570;2022-11-30T07:16:23;97997.97;;;5.74;87.93
1371;BME280;14306;49.942;11.570;2022-11-30T07:18:52;97995.41;;;5.89;87.38
1371;BME280;14306;49.942;11.570;2022-11-30T07:21:20;98022.28;;;5.89;87.09
1371;BME280;14306;49.942;11.570;2022-11-30T07:23:48;98015.81;;;5.85;86.69
1371;BME280;14306;49.942;11.570;2022-11-30T07:26:36;98012.34;;;5.90;86.75
1371;BME280;14306;49.942;11.570;2022-11-30T07:29:08;98013.72;;;5.97;86.06
1371;BME280;14306;49.942;11.570;2022-11-30T07:31:37;98014.00;;;5.96;87.32
1371;BME280;14306;49.942;11.570;2022-11-30T07:34:07;98008.03;;;5.89;86.48
1371;BME280;14306;49.942;11.570;2022-11-30T07:36:35;97986.34;;;6.00;86.43
1371;BME280;14306;49.942;11.570;2022-11-30T07:39:07;97993.50;;;5.85;86.72
1371;BME280;14306;49.942;11.570;2022-11-30T07:41:35;98026.63;;;5.95;86.38
1371;BME280;14306;49.942;11.570;2022-11-30T07:44:04;98027.19;;;6.02;84.76
1371;BME280;14306;49.942;11.570;2022-11-30T07:46:35;98028.34;;;6.11;86.09
1371;BME280;14306;49.942;11.570;2022-11-30T07:49:03;98012.13;;;5.65;87.05
1371;BME280;14306;49.942;11.570;2022-11-30T07:51:33;98012.56;;;5.20;87.28
1371;BME280;14306;49.942;11.570;2022-11-30T07:54:01;98016.84;;;5.48;86.39
1371;BME280;14306;49.942;11.570;2022-11-30T07:56:30;98039.00;;;5.65;86.21
1371;BME280;14306;49.942;11.570;2022-11-30T07:58:59;98027.25;;;5.39;87.32
1371;BME280;14306;49.942;11.570;2022-11-30T08:01:32;98021.25;;;5.59;87.45
1371;BME280;14306;49.942;11.570;2022-11-30T08:04:02;98015.56;;;5.55;86.18
1371;BME280;14306;49.942;11.570;2022-11-30T08:06:32;98012.47;;;5.37;86.87
1371;BME280;14306;49.942;11.570;2022-11-30T08:09:02;98029.84;;;5.61;87.05
1371;BME280;14306;49.942;11.570;2022-11-30T08:11:32;98007.53;;;5.60;86.30
1371;BME280;14306;49.942;11.570;2022-11-30T08:14:02;98034.09;;;5.57;86.65
1371;BME280;14306;49.942;11.570;2022-11-30T08:16:34;98011.13;;;5.39;87.09
1371;BME280;14306;49.942;11.570;2022-11-30T08:19:05;98021.41;;;5.47;86.48
1371;BME280;14306;49.942;11.570;2022-11-30T08:21:33;97979.72;;;5.40;86.48
1371;BME280;14306;49.942;11.570;2022-11-30T08:24:04;98032.91;;;5.74;85.25
1371;BME280;14306;49.942;11.570;2022-11-30T08:26:33;98015.88;;;5.59;86.01
1371;BME280;14306;49.942;11.570;2022-11-30T08:29:01;98029.34;;;5.69;86.23
1371;BME280;14306;49.942;11.570;2022-11-30T08:31:31;98017.03;;;5.41;86.33
1371;BME280;14306;49.942;11.570;2022-11-30T08:34:05;98036.81;;;5.62;86.54
1371;BME280;14306;49.942;11.570;2022-11-30T08:36:34;98034.00;;;5.78;85.21
1371;BME280;14306;49.942;11.570;2022-11-30T08:39:03;98039.72;;;5.55;86.62
1371;BME280;14306;49.942;11.570;2022-11-30T08:41:38;98020.19;;;5.33;85.81
1371;BME280;14306;49.942;11.570;2022-11-30T08:44:06;98053.69;;;5.84;85.63
1371;BME280;14306;49.942;11.570;2022-11-30T08:46:38;98026.81;;;5.52;85.88
1371;BME280;14306;49.942;11.570;2022-11-30T08:49:36;98044.28;;;5.86;86.07
1371;BME280;14306;49.942;11.570;2022-11-30T08:52:07;98058.59;;;5.92;85.72
1371;BME280;14306;49.942;11.570;2022-11-30T08:54:55;98056.69;;;5.61;85.97
1371;BME280;14306;49.942;11.570;2022-11-30T08:57:24;98041.72;;;5.70;87.02
1371;BME280;14306;49.942;11.570;2022-11-30T08:59:52;98052.88;;;5.52;85.65
1371;BME280;14306;49.942;11.570;2022-11-30T09:02:20;98041.59;;;5.55;87.22
1371;BME280;14306;49.942;11.570;2022-11-30T09:04:50;98066.66;;;5.92;86.24
1371;BME280;14306;49.942;11.570;2022-11-30T09:07:19;98088.75;;;5.99;84.88
1371;BME280;14306;49.942;11.570;2022-11-30T09:09:47;98083.56;;;5.61;87.20
1371;BME280;14306;49.942;11.570;2022-11-30T09:12:15;98074.69;;;5.87;86.40
1371;BME280;14306;49.942;11.570;2022-11-30T09:14:44;98065.94;;;5.43;86.96
1371;BME280;14306;49.942;11.570;2022-11-30T09:17:23;98092.75;;;5.38;87.77
1371;BME280;14306;49.942;11.570;2022-11-30T09:20:08;98070.50;;;5.43;86.05
1371;BME280;14306;49.942;11.570;2022-11-30T09:22:36;98082.97;;;5.27;87.55
1371;BME280;14306;49.942;11.570;2022-11-30T09:25:07;98081.91;;;5.28;87.75
1371;BME280;14306;49.942;11.570;2022-11-30T09:27:38;98084.06;;;5.58;86.74
1371;BME280;14306;49.942;11.570;2022-11-30T09:30:07;98095.25;;;5.76;86.49
1371;BME280;14306;49.942;11.570;2022-11-30T09:32:35;98097.88;;;5.71;86.63
1371;BME280;14306;49.942;11.570;2022-11-30T09:35:08;98090.97;;;5.49;87.07
1371;BME280;14306;49.942;11.570;2022-11-30T09:37:38;98097.41;;;5.79;86.43
1371;BME280;14306;49.942;11.570;2022-11-30T09:40:08;98096.06;;;6.08;84.81
1371;BME280;14306;49.942;11.570;2022-11-30T09:42:50;98093.25;;;6.25;84.71
1371;BME280;14306;49.942;11.570;2022-11-30T09:45:30;98098.78;;;6.13;85.26
1371;BME280;14306;49.942;11.570;2022-11-30T09:48:12;98064.69;;;5.82;85.75
1371;BME280;14306;49.942;11.570;2022-11-30T09:50:47;98055.50;;;5.78;85.39
1371;BME280;14306;49.942;11.570;2022-11-30T09:53:20;98089.84;;;6.03;84.32
1371;BME280;14306;49.942;11.570;2022-11-30T09:55:55;98082.66;;;6.13;85.18
1371;BME280;14306;49.942;11.570;2022-11-30T09:58:32;98081.16;;;6.32;84.12
1371;BME280;14306;49.942;11.570;2022-11-30T10:01:01;98085.16;;;6.25;84.21
1371;BME280;14306;49.942;11.570;2022-11-30T10:03:33;98082.72;;;6.18;83.88
1371;BME280;14306;49.942;11.570;2022-11-30T10:06:06;98079.75;;;5.83;85.73
1371;BME280;14306;49.942;11.570;2022-11-30T10:08:45;98076.06;;;5.94;85.64
1371;BME280;14306;49.942;11.570;2022-11-30T10:11:27;98093.38;;;5.77;86.03
1371;BME280;14306;49.942;11.570;2022-11-30T10:14:06;98075.28;;;6.35;85.24
1371;BME280;14306;49.942;11.570;2022-11-30T10:16:46;98069.50;;;5.80;85.81
1371;BME280;14306;49.942;11.570;2022-11-30T10:19:31;98087.34;;;5.91;84.23
1371;BME280;14306;49.942;11.570;2022-11-30T10:22:11;98079.34;;;6.01;83.59
1371;BME280;14306;49.942;11.570;2022-11-30T10:24:54;98082.00;;;6.33;82.73
1371;BME280;14306;49.942;11.570;2022-11-30T10:27:36;98079.19;;;6.13;83.21
1371;BME280;14306;49.942;11.570;2022-11-30T10:30:12;98073.69;;;5.98;83.79
1371;BME280;14306;49.942;11.570;2022-11-30T10:32:47;98094.09;;;6.35;82.46
1371;BME280;14306;49.942;11.570;2022-11-30T10:35:32;98069.75;;;6.62;82.12
1371;BME280;14306;49.942;11.570;2022-11-30T10:38:11;98045.00;;;6.55;82.43
1371;BME280;14306;49.942;11.570;2022-11-30T10:40:45;98066.47;;;6.50;81.38
1371;BME280;14306;49.942;11.570;2022-11-30T10:43:19;98063.69;;;6.30;82.08
1371;BME280;14306;49.942;11.570;2022-11-30T10:45:49;98070.78;;;6.04;83.25
1371;BME280;14306;49.942;11.570;2022-11-30T10:48:22;98071.91;;;6.55;81.38
1371;BME280;14306;49.942;11.570;2022-11-30T10:50:52;98058.22;;;6.71;80.89
1371;BME280;14306;49.942;11.570;2022-11-30T10:53:22;98077.53;;;6.53;80.39
1371;BME280;14306;49.942;11.570;2022-11-30T10:55:58;98060.44;;;6.89;80.49
1371;BME280;14306;49.942;11.570;2022-11-30T10:58:28;98060.00;;;6.46;80.09
1371;BME280;14306;49.942;11.570;2022-11-30T11:01:01;98056.16;;;6.88;79.27
1371;BME280;14306;49.942;11.570;2022-11-30T11:03:30;98049.63;;;6.69;79.08
1371;BME280;14306;49.942;11.570;2022-11-30T11:06:10;98054.50;;;6.82;79.56
1371;BME280;14306;49.942;11.570;2022-11-30T11:08:41;98048.72;;;7.55;76.77
1371;BME280;14306;49.942;11.570;2022-11-30T11:11:30;98052.19;;;7.16;77.17
1371;BME280;14306;49.942;11.570;2022-11-30T11:14:18;98045.06;;;6.70;76.99
1371;BME280;14306;49.942;11.570;2022-11-30T11:16:50;98061.47;;;6.78;77.38
1371;BME280;14306;49.942;11.570;2022-11-30T11:19:23;98070.59;;;6.67;76.45
1371;BME280;14306;49.942;11.570;2022-11-30T11:21:52;98049.22;;;6.41;77.54
1371;BME280;14306;49.942;11.570;2022-11-30T11:24:24;98046.72;;;6.91;76.17
1371;BME280;14306;49.942;11.570;2022-11-30T11:26:54;98055.00;;;6.74;75.99
1371;BME280;14306;49.942;11.570;2022-11-30T11:29:25;98063.59;;;6.71;76.21
1371;BME280;14306;49.942;11.570;2022-11-30T11:32:20;98067.53;;;7.10;75.16
1371;BME280;14306;49.942;11.570;2022-11-30T11:34:48;98052.69;;;7.03;74.19
1371;BME280;14306;49.942;11.570;2022-11-30T11:37:20;98043.31;;;7.20;73.70
1371;BME280;14306;49.942;11.570;2022-11-30T11:40:00;98057.59;;;7.16;74.33
1371;BME280;14306;49.942;11.570;2022-11-30T11:42:30;98050.56;;;7.15;75.01
1371;BME280;14306;49.942;11.570;2022-11-30T11:45:01;98034.09;;;7.01;74.94
1371;BME280;14306;49.942;11.570;2022-11-30T11:47:36;98064.66;;;7.72;73.30
1371;BME280;14306;49.942;11.570;2022-11-30T11:50:23;98059.50;;;7.55;72.62
1371;BME280;14306;49.942;11.570;2022-11-30T11:53:15;98064.63;;;8.17;71.98
1371;BME280;14306;49.942;11.570;2022-11-30T11:55:54;98059.50;;;7.25;73.48
1371;BME280;14306;49.942;11.570;2022-11-30T11:58:32;98062.72;;;7.32;72.77
1371;BME280;14306;49.942;11.570;2022-11-30T12:01:07;98050.63;;;7.55;73.69
1371;BME280;14306;49.942;11.570;2022-11-30T12:04:04;98038.22;;;7.34;72.89
1371;BME280;14306;49.942;11.570;2022-11-30T12:06:34;98054.41;;;7.49;73.15
1371;BME280;14306;49.942;11.570;2022-11-30T12:09:06;98061.94;;;8.02;72.02
1371;BME280;14306;49.942;11.570;2022-11-30T12:11:44;98060.56;;;7.39;72.07
1371;BME280;14306;49.942;11.570;2022-11-30T12:14:14;98064.09;;;8.25;71.19
1371;BME280;14306;49.942;11.570;2022-11-30T12:16:55;98061.88;;;8.57;71.02
1371;BME280;14306;49.942;11.570;2022-11-30T12:19:32;98034.41;;;7.15;72.06
1371;BME280;14306;49.942;11.570;2022-11-30T12:22:14;98051.69;;;7.29;72.78
1371;BME280;14306;49.942;11.570;2022-11-30T12:24:56;98056.00;;;7.45;72.75
1371;BME280;14306;49.942;11.570;2022-11-30T12:27:42;98059.47;;;7.10;72.71
1371;BME280;14306;49.942;11.570;2022-11-30T12:30:22;98048.06;;;6.88;73.47
1371;BME280;14306;49.942;11.570;2022-11-30T12:33:10;98055.69;;;7.11;72.02
1371;BME280;14306;49.942;11.570;2022-11-30T12:35:45;98051.63;;;6.37;74.86
1371;BME280;14306;49.942;11.570;2022-11-30T12:38:24;98051.22;;;6.65;73.81
1371;BME280;14306;49.942;11.570;2022-11-30T12:40:59;98041.03;;;6.82;72.72
1371;BME280;14306;49.942;11.570;2022-11-30T12:43:41;98055.19;;;7.34;72.65
1371;BME280;14306;49.942;11.570;2022-11-30T12:46:20;98048.66;;;7.05;71.29
1371;BME280;14306;49.942;11.570;2022-11-30T12:48:58;98045.06;;;6.75;73.50
1371;BME280;14306;49.942;11.570;2022-11-30T12:51:35;98056.69;;;6.90;73.38
1371;BME280;14306;49.942;11.570;2022-11-30T12:54:09;98061.25;;;6.85;71.74
1371;BME280;14306;49.942;11.570;2022-11-30T12:56:44;98054.72;;;6.66;73.79
1371;BME280;14306;49.942;11.570;2022-11-30T12:59:23;98040.06;;;6.42;72.45
1371;BME280;14306;49.942;11.570;2022-11-30T13:02:12;98056.78;;;6.44;74.37
1371;BME280;14306;49.942;11.570;2022-11-30T13:04:52;98061.19;;;6.70;72.61
1371;BME280;14306;49.942;11.570;2022-11-30T13:07:28;98072.06;;;6.33;73.62
1371;BME280;14306;49.942;11.570;2022-11-30T13:10:04;98056.81;;;6.07;74.66
1371;BME280;14306;49.942;11.570;2022-11-30T13:12:45;98045.25;;;6.07;74.97
1371;BME280;14306;49.942;11.570;2022-11-30T13:15:20;98060.63;;;6.11;74.86
1371;BME280;14306;49.942;11.570;2022-11-30T13:17:49;98061.72;;;6.20;74.63
1371;BME280;14306;49.942;11.570;2022-11-30T13:20:22;98069.63;;;6.37;73.60
1371;BME280;14306;49.942;11.570;2022-11-30T13:22:58;98077.22;;;6.03;74.60
1371;BME280;14306;49.942;11.570;2022-11-30T13:25:30;98054.56;;;5.94;74.00
1371;BME280;14306;49.942;11.570;2022-11-30T13:28:31;98057.22;;;5.89;74.95
1371;BME280;14306;49.942;11.570;2022-11-30T13:31:08;98059.34;;;5.87;74.47
1371;BME280;14306;49.942;11.570;2022-11-30T13:33:45;98058.75;;;5.80;75.00
1371;BME280;14306;49.942;11.570;2022-11-30T13:36:24;98063.25;;;6.06;74.29
1371;BME280;14306;49.942;11.570;2022-11-30T13:39:19;98067.06;;;5.79;74.36